Terminal Aerodrome Forecast
Issued by NWS Melbourne, FL

Home | Current Version | Previous Version | Text Only | Print | Product List | Glossary On
Versions: 1 2 3 4 5 6 7 8 9 10 11 12 13 14
000
FTUS42 KMLB 300500
TAFDAB
TAF
KDAB 300540Z 3006/3106 VRB03KT P6SM FEW070 SCT250
     FM301700 09007KT P6SM SCT050 SCT250
     FM310200 VRB03KT P6SM SCT070 SCT250=

USA.gov is the U.S. government's official web portal to all federal, state and local government web resources and services.